Temp: 0.3°C   Baro: 1049.4mb
  Wind: 0.0mph   Dir: NW (316°)
  Rain: 0.0mm (0.0mm/hr)
  Solar: 0W/m2  Hum: 93%
 
Bath Spa Weather Historical Data
Daily Summary for January 14, 2020 Units:  English    Metric   Both
Next Day »
Daily Weekly Monthly Yearly Custom
  High: Low: Average:
Temperature: 57.4 °F 45.1 °F 50.4 °F
Dew Point: 53.8 °F 39.4 °F 46.8 °F
Humidity: 95% 80% 88%
Wind Speed: 25.1mph 0mph 7.9mph
Wind Gust: 34mph - -
Wind direction- - SW
Pressure: 29.4 in 29.2 in -
Precipitation: 0.58 in    
Historical Graphs
 
 
Tabular Data for January 14, 2020
Time Temperature Dew Point Pressure Wind direction Wind Speed Wind Gust Humidity Rainfall Rate (Hourly) solar
00:00 46.6 °F 42.6 °F 29.4 in WSW 6.9 mph 12 mph 86% 0 in 0.00 W/m2
00:05 46.8 °F 42.8 °F 29.4 in SSW 8.9 mph 10 mph 86% 0 in 0.00 W/m2
00:10 46.8 °F 42.8 °F 29.4 in WSW 6.9 mph 12 mph 86% 0 in 0.00 W/m2
00:15 46.9 °F 43 °F 29.4 in WSW 10.1 mph 13 mph 86% 0 in 0.00 W/m2
00:20 46.8 °F 42.4 °F 29.4 in WSW 4.9 mph 14 mph 85% 0 in 0.00 W/m2
00:25 46.8 °F 42.4 °F 29.4 in SW 4.9 mph 9 mph 85% 0 in 0.00 W/m2
00:30 46.6 °F 42.3 °F 29.4 in SSW 4 mph 8 mph 85% 0 in 0.00 W/m2
00:35 46.6 °F 42.3 °F 29.4 in SW 2.9 mph 14 mph 85% 0 in 0.00 W/m2
00:40 46.6 °F 42.3 °F 29.4 in West 2.9 mph 9 mph 85% 0 in 0.00 W/m2
00:45 46.6 °F 42.3 °F 29.4 in SW 6 mph 12 mph 85% 0 in 0.00 W/m2
00:50 46.6 °F 42.1 °F 29.4 in WSW 6.9 mph 10 mph 84% 0 in 0.00 W/m2
00:55 46.6 °F 42.1 °F 29.4 in SW 10.1 mph 11 mph 84% 0 in 0.00 W/m2
01:00 46.8 °F 41.9 °F 29.4 in SW 6.9 mph 16 mph 83% 0 in 0.00 W/m2
01:05 46.8 °F 41.5 °F 29.4 in WSW 6 mph 13 mph 82% 0 in 0.00 W/m2
01:10 46.8 °F 41.5 °F 29.4 in WSW 4.9 mph 10 mph 82% 0 in 0.00 W/m2
01:15 46.8 °F 41.5 °F 29.4 in SW 8.1 mph 13 mph 82% 0 in 0.00 W/m2
01:20 46.8 °F 41.5 °F 29.4 in WSW 4 mph 9 mph 82% 0 in 0.00 W/m2
01:25 46.8 °F 41.5 °F 29.4 in WSW 6 mph 9 mph 82% 0 in 0.00 W/m2
01:30 46.6 °F 41.4 °F 29.4 in WSW 6 mph 10 mph 82% 0 in 0.00 W/m2
01:35 46.6 °F 41.4 °F 29.4 in SW 2.9 mph 9 mph 82% 0 in 0.00 W/m2
01:40 46.6 °F 41.4 °F 29.4 in West 6.9 mph 10 mph 82% 0 in 0.00 W/m2
01:45 46.6 °F 41.7 °F 29.4 in WSW 4.9 mph 11 mph 83% 0 in 0.00 W/m2
01:50 46.6 °F 41.7 °F 29.4 in WNW 4.9 mph 8 mph 83% 0 in 0.00 W/m2
01:55 46.8 °F 41.9 °F 29.4 in WSW 6.9 mph 11 mph 83% 0 in 0.00 W/m2
02:00 46.8 °F 41.9 °F 29.4 in WSW 8.1 mph 12 mph 83% 0 in 0.00 W/m2
02:05 46.8 °F 41.5 °F 29.4 in West 6.9 mph 10 mph 82% 0 in 0.00 W/m2
02:10 46.6 °F 41.4 °F 29.4 in WSW 2 mph 7 mph 82% 0 in 0.00 W/m2
02:15 46.4 °F 41.5 °F 29.4 in WSW 4.9 mph 9 mph 83% 0 in 0.00 W/m2
02:20 46.2 °F 41 °F 29.4 in NW 6 mph 6 mph 82% 0 in 0.00 W/m2
02:25 46.2 °F 41 °F 29.4 in West 6.9 mph 7 mph 82% 0 in 0.00 W/m2
02:31 46.2 °F 41 °F 29.4 in SW 6 mph 9 mph 82% 0 in 0.00 W/m2
02:35 46 °F 40.8 °F 29.4 in WSW 4.9 mph 6 mph 82% 0 in 0.00 W/m2
02:40 46 °F 40.8 °F 29.4 in SW 2.9 mph 6 mph 82% 0 in 0.00 W/m2
02:45 46 °F 40.8 °F 29.4 in SW 4.9 mph 6 mph 82% 0 in 0.00 W/m2
02:50 46.2 °F 41 °F 29.4 in West 0.9 mph 6 mph 82% 0 in 0.00 W/m2
02:55 46 °F 40.8 °F 29.4 in West 6 mph 7 mph 82% 0 in 0.00 W/m2
03:00 46 °F 40.8 °F 29.4 in WSW 10.1 mph 10 mph 82% 0 in 0.00 W/m2
03:05 46 °F 40.8 °F 29.4 in West 2.9 mph 9 mph 82% 0 in 0.00 W/m2
03:10 46.2 °F 41 °F 29.4 in West 4.9 mph 9 mph 82% 0 in 0.00 W/m2
03:15 46.2 °F 41 °F 29.4 in SW 2.9 mph 10 mph 82% 0 in 0.00 W/m2
03:20 46 °F 40.5 °F 29.4 in West 8.1 mph 9 mph 81% 0 in 0.00 W/m2
03:25 46.2 °F 40.6 °F 29.4 in West 4.9 mph 12 mph 81% 0 in 0.00 W/m2
03:30 46.2 °F 40.6 °F 29.4 in WSW 6 mph 9 mph 81% 0 in 0.00 W/m2
03:35 46.2 °F 40.5 °F 29.4 in SW 10.1 mph 15 mph 80% 0 in 0.00 W/m2
03:40 46.2 °F 40.5 °F 29.4 in SW 4 mph 7 mph 80% 0 in 0.00 W/m2
03:45 46.2 °F 40.5 °F 29.4 in WSW 6.9 mph 13 mph 80% 0 in 0.00 W/m2
03:50 46.2 °F 40.5 °F 29.4 in West 6 mph 7 mph 80% 0 in 0.00 W/m2
03:55 46.2 °F 40.6 °F 29.4 in WNW 4.9 mph 13 mph 81% 0 in 0.00 W/m2
04:00 46.2 °F 40.5 °F 29.4 in WSW 6 mph 9 mph 80% 0 in 0.00 W/m2
04:05 45.9 °F 40.3 °F 29.4 in WSW 6.9 mph 8 mph 81% 0 in 0.00 W/m2
04:10 45.7 °F 40.1 °F 29.4 in West 2.9 mph 6 mph 81% 0 in 0.00 W/m2
04:15 45.7 °F 40.1 °F 29.4 in WNW 8.1 mph 10 mph 81% 0 in 0.00 W/m2
04:20 45.3 °F 39.9 °F 29.4 in WSW 4 mph 7 mph 81% 0 in 0.00 W/m2
04:25 45.3 °F 39.9 °F 29.4 in WSW 2.9 mph 9 mph 81% 0 in 0.00 W/m2
04:30 45.3 °F 40.1 °F 29.4 in West 2 mph 8 mph 82% 0 in 0.00 W/m2
04:35 45.3 °F 39.9 °F 29.4 in WSW 6.9 mph 9 mph 81% 0 in 0.00 W/m2
04:40 45.3 °F 39.9 °F 29.4 in WSW 4.9 mph 7 mph 81% 0 in 0.00 W/m2
04:45 45.7 °F 40.1 °F 29.4 in WSW 8.9 mph 11 mph 81% 0 in 0.00 W/m2
04:50 45.7 °F 39.9 °F 29.4 in SW 2 mph 10 mph 80% 0 in 0.00 W/m2
04:55 45.7 °F 39.9 °F 29.4 in West 6.9 mph 12 mph 80% 0 in 0.00 W/m2
05:01 45.5 °F 39.7 °F 29.4 in West 6 mph 9 mph 80% 0 in 0.00 W/m2
05:05 45.5 °F 39.7 °F 29.4 in WSW 6.9 mph 8 mph 80% 0 in 0.00 W/m2
05:10 45.5 °F 39.7 °F 29.4 in WSW 2.9 mph 6 mph 80% 0 in 0.00 W/m2
05:15 45.3 °F 39.6 °F 29.4 in SW 2 mph 3 mph 80% 0 in 0.00 W/m2
05:20 45.1 °F 39.4 °F 29.4 in SSW 2.9 mph 4 mph 80% 0 in 0.00 W/m2
05:25 45.3 °F 39.6 °F 29.4 in SW 4 mph 6 mph 80% 0 in 0.00 W/m2
05:30 45.5 °F 40.1 °F 29.4 in SSW 4 mph 7 mph 81% 0 in 0.00 W/m2
05:35 45.3 °F 39.9 °F 29.4 in SW 4.9 mph 6 mph 81% 0 in 0.00 W/m2
05:40 45.5 °F 40.1 °F 29.4 in WSW 2.9 mph 3 mph 81% 0 in 0.00 W/m2
05:45 45.3 °F 39.9 °F 29.4 in SW 2 mph 7 mph 81% 0 in 0.00 W/m2
05:50 45.3 °F 39.9 °F 29.4 in SW 4.9 mph 5 mph 81% 0 in 0.00 W/m2
05:55 45.5 °F 40.1 °F 29.4 in SW 4.9 mph 6 mph 81% 0 in 0.00 W/m2
06:00 45.7 °F 40.5 °F 29.4 in WSW 4 mph 6 mph 82% 0 in 0.00 W/m2
06:05 45.7 °F 40.5 °F 29.4 in WSW 4 mph 5 mph 82% 0 in 0.00 W/m2
06:10 45.9 °F 40.6 °F 29.4 in Calm   8 mph 82% 0 in 0.00 W/m2
06:15 45.9 °F 40.6 °F 29.4 in SSW 2 mph 5 mph 82% 0 in 0.00 W/m2
06:20 45.9 °F 40.6 °F 29.4 in Calm   7 mph 82% 0 in 0.00 W/m2
06:25 45.9 °F 40.6 °F 29.4 in West 2 mph 3 mph 82% 0 in 0.00 W/m2
06:31 46 °F 40.8 °F 29.4 in SW 2 mph 7 mph 82% 0 in 0.00 W/m2
06:35 46.2 °F 41 °F 29.4 in SW 2.9 mph 5 mph 82% 0 in 0.00 W/m2
06:40 46.4 °F 40.8 °F 29.4 in SSW 4.9 mph 9 mph 81% 0 in 0.00 W/m2
06:45 46.6 °F 41 °F 29.4 in SW 6 mph 9 mph 81% 0 in 0.00 W/m2
06:50 46.6 °F 40.8 °F 29.4 in SW 6.9 mph 9 mph 80% 0 in 0.00 W/m2
06:55 46.4 °F 40.8 °F 29.4 in SSW 4 mph 6 mph 81% 0 in 0.00 W/m2
07:00 46.4 °F 41.2 °F 29.4 in SSW 4.9 mph 9 mph 82% 0 in 0.00 W/m2
07:05 46.6 °F 41.7 °F 29.4 in SSW 2.9 mph 8 mph 83% 0 in 0.00 W/m2
07:10 46.4 °F 41.5 °F 29.4 in SSW 4.9 mph 9 mph 83% 0 in 0.00 W/m2
07:15 46.6 °F 41.7 °F 29.4 in SW 6.9 mph 7 mph 83% 0 in 0.00 W/m2
07:20 46.8 °F 41.9 °F 29.4 in WSW 4.9 mph 10 mph 83% 0 in 0.00 W/m2
07:25 46.8 °F 41.9 °F 29.4 in South 4.9 mph 10 mph 83% 0 in 0.00 W/m2
07:30 46.8 °F 41.9 °F 29.4 in South 6 mph 11 mph 83% 0 in 0.00 W/m2
07:35 46.9 °F 42.1 °F 29.4 in WSW 11 mph 15 mph 83% 0 in 0.00 W/m2
07:40 46.9 °F 42.1 °F 29.4 in SSE 4 mph 13 mph 83% 0 in 0.00 W/m2
07:45 47.1 °F 42.3 °F 29.4 in SE 6.9 mph 11 mph 83% 0 in 0.00 W/m2
07:50 47.1 °F 42.3 °F 29.4 in SW 6 mph 10 mph 83% 0 in 0.00 W/m2
07:55 47.5 °F 42.6 °F 29.4 in South 8.1 mph 14 mph 83% 0 in 0.00 W/m2
08:00 47.5 °F 42.8 °F 29.4 in SSW 2.9 mph 7 mph 84% 0 in 0.00 W/m2
08:05 47.5 °F 42.8 °F 29.4 in WSW 4 mph 12 mph 84% 0 in 0.00 W/m2
08:10 47.7 °F 43 °F 29.4 in SW 8.9 mph 9 mph 84% 0 in 0.00 W/m2
08:15 47.7 °F 43 °F 29.4 in SSW 6 mph 10 mph 84% 0 in 0.00 W/m2
08:20 48 °F 43.3 °F 29.4 in SSW 11 mph 14 mph 84% 0 in 0.00 W/m2
08:25 48 °F 43.2 °F 29.4 in SSE 6 mph 10 mph 83% 0 in 0.00 W/m2
08:30 48.2 °F 43.3 °F 29.4 in SSE 4.9 mph 15 mph 83% 0 in 5.00 W/m2
08:35 48.4 °F 43.5 °F 29.4 in South 0.9 mph 11 mph 83% 0 in 5.00 W/m2
08:40 48.4 °F 43.7 °F 29.4 in SSW 4 mph 8 mph 84% 0 in 9.00 W/m2
08:45 48.4 °F 43.7 °F 29.4 in South 4 mph 12 mph 84% 0 in 9.00 W/m2
08:50 48.2 °F 43.5 °F 29.4 in SSW 6 mph 12 mph 84% 0 in 9.00 W/m2
08:55 48.4 °F 43.7 °F 29.4 in South 10.1 mph 14 mph 84% 0 in 9.00 W/m2
09:01 48.6 °F 43.9 °F 29.4 in SSW 4.9 mph 8 mph 84% 0 in 16.00 W/m2
09:05 48.6 °F 43.9 °F 29.4 in South 2 mph 14 mph 84% 0 in 16.00 W/m2
09:10 48.6 °F 43.9 °F 29.4 in South 4 mph 10 mph 84% 0 in 14.00 W/m2
09:15 48.7 °F 44.1 °F 29.4 in South 4.9 mph 19 mph 84% 0 in 14.00 W/m2
09:20 48.9 °F 44.2 °F 29.4 in SSW 2 mph 9 mph 84% 0 in 19.00 W/m2
09:25 49.3 °F 44.6 °F 29.4 in SSW 6.9 mph 21 mph 84% 0 in 25.00 W/m2
09:30 49.3 °F 44.6 °F 29.4 in South 8.1 mph 16 mph 84% 0 in 26.00 W/m2
09:35 49.3 °F 44.6 °F 29.4 in SSE 4 mph 14 mph 84% 0 in 25.00 W/m2
09:40 49.3 °F 44.6 °F 29.4 in South 6 mph 12 mph 84% 0 in 25.00 W/m2
09:45 49.3 °F 44.6 °F 29.4 in SSE 2.9 mph 17 mph 84% 0 in 21.00 W/m2
09:50 49.3 °F 44.6 °F 29.4 in SSE 6 mph 19 mph 84% 0 in 33.00 W/m2
09:55 49.5 °F 44.8 °F 29.4 in South 12.1 mph 12 mph 84% 0 in 40.00 W/m2
10:00 49.5 °F 44.6 °F 29.4 in SSW 6 mph 18 mph 83% 0 in 44.00 W/m2
10:05 49.6 °F 44.8 °F 29.4 in South 6 mph 14 mph 83% 0 in 32.00 W/m2
10:10 49.6 °F 44.8 °F 29.3 in SSE 4.9 mph 11 mph 83% 0 in 49.00 W/m2
10:15 49.6 °F 44.8 °F 29.3 in SSE 6 mph 17 mph 83% 0 in 46.00 W/m2
10:20 49.5 °F 44.8 °F 29.3 in South 6.9 mph 14 mph 84% 0 in 46.00 W/m2
10:25 49.5 °F 45.1 °F 29.3 in South 8.9 mph 15 mph 85% 0 in 30.00 W/m2
10:30 49.3 °F 45 °F 29.3 in SE 17 mph 17 mph 85% 0 in 28.00 W/m2
10:35 49.3 °F 45.3 °F 29.3 in SSW 8.9 mph 13 mph 86% 0 in 39.00 W/m2
10:40 49.3 °F 45.3 °F 29.3 in South 14.1 mph 14 mph 86% 0 in 26.00 W/m2
10:45 49.5 °F 45.7 °F 29.3 in South 6.9 mph 17 mph 87% 0 in 39.00 W/m2
10:50 49.5 °F 46 °F 29.3 in SE 12.1 mph 17 mph 88% 0 in 35.00 W/m2
10:55 49.5 °F 46 °F 29.3 in South 2.9 mph 17 mph 88% 0 in 58.00 W/m2
11:00 49.6 °F 46.6 °F 29.3 in South 10.1 mph 20 mph 89% 0 in 54.00 W/m2
11:05 49.6 °F 46.6 °F 29.3 in SSE 8.1 mph 21 mph 89% 0 in 74.00 W/m2
11:10 49.8 °F 46.9 °F 29.3 in SSE 8.1 mph 17 mph 90% 0 in 95.00 W/m2
11:15 50.2 °F 47.3 °F 29.3 in SSW 21.9 mph 23 mph 90% 0 in 118.00 W/m2
11:20 50.4 °F 47.5 °F 29.3 in SSE 12.1 mph 22 mph 90% 0.01 in 86.00 W/m2
11:25 50.4 °F 47.5 °F 29.3 in South 14.1 mph 20 mph 90% 0.01 in 37.00 W/m2
11:30 50.4 °F 47.5 °F 29.3 in SSW 6.9 mph 19 mph 90% 0.01 in 39.00 W/m2
11:35 50.4 °F 47.8 °F 29.3 in SSE 4 mph 23 mph 91% 0.01 in 37.00 W/m2
11:40 50.4 °F 47.8 °F 29.3 in South 21 mph 25 mph 91% 0.01 in 72.00 W/m2
11:45 50.4 °F 47.8 °F 29.3 in South 6 mph 17 mph 91% 0.01 in 81.00 W/m2
11:50 50.4 °F 47.8 °F 29.3 in SW 2 mph 21 mph 91% 0.01 in 67.00 W/m2
11:55 50.5 °F 48 °F 29.3 in WSW 6.9 mph 14 mph 91% 0.01 in 60.00 W/m2
12:00 50.7 °F 48.6 °F 29.3 in SW 10.1 mph 18 mph 92% 0.01 in 83.00 W/m2
12:05 50.9 °F 48.7 °F 29.2 in South 15 mph 20 mph 92% 0.01 in 51.00 W/m2
12:10 51.6 °F 49.5 °F 29.3 in South 17 mph 21 mph 92% 0.01 in 81.00 W/m2
12:15 51.8 °F 49.6 °F 29.2 in South 10.1 mph 20 mph 92% 0.01 in 63.00 W/m2
12:20 52.2 °F 49.8 °F 29.2 in South 24 mph 24 mph 92% 0 in 54.00 W/m2
12:25 52.5 °F 50.2 °F 29.2 in SSW 11 mph 20 mph 92% 0 in 28.00 W/m2
12:30 52.9 °F 50.5 °F 29.2 in South 14.1 mph 19 mph 92% 0 in 33.00 W/m2
12:35 53.4 °F 51.1 °F 29.2 in SSW 6.9 mph 21 mph 92% 0 in 28.00 W/m2
12:40 53.8 °F 51.4 °F 29.2 in South 14.1 mph 19 mph 92% 0 in 49.00 W/m2
12:45 54.1 °F 51.8 °F 29.2 in SSW 6 mph 22 mph 92% 0.01 in 40.00 W/m2
12:50 54.7 °F 52.3 °F 29.2 in SSW 19.9 mph 22 mph 92% 0.01 in 49.00 W/m2
12:55 54.9 °F 52.5 °F 29.2 in South 6 mph 31 mph 92% 0.01 in 56.00 W/m2
13:00 54.9 °F 52.3 °F 29.2 in SSW 11 mph 12 mph 91% 0.01 in 60.00 W/m2
13:05 55.2 °F 52.9 °F 29.2 in SSW 17.9 mph 29 mph 92% 0.01 in 86.00 W/m2
13:10 55.6 °F 53.1 °F 29.2 in SW 19 mph 29 mph 91% 0.01 in 83.00 W/m2
13:15 55.9 °F 53.4 °F 29.2 in SSW 25.1 mph 26 mph 91% 0.01 in 84.00 W/m2
13:20 56.3 °F 53.4 °F 29.2 in WSW 17 mph 33 mph 90% 0.01 in 46.00 W/m2
13:25 56.7 °F 53.8 °F 29.2 in SW 15 mph 22 mph 90% 0.01 in 74.00 W/m2
13:30 56.7 °F 53.4 °F 29.2 in SSW 11 mph 24 mph 89% 0.01 in 47.00 W/m2
13:35 56.8 °F 53.6 °F 29.2 in SW 13 mph 22 mph 89% 0.01 in 39.00 W/m2
13:40 56.8 °F 53.6 °F 29.2 in WSW 17 mph 29 mph 89% 0.01 in 40.00 W/m2
13:45 56.7 °F 53.4 °F 29.2 in SSW 8.9 mph 18 mph 89% 0 in 39.00 W/m2
13:50 56.5 °F 53.2 °F 29.2 in SW 17.9 mph 20 mph 89% 0 in 51.00 W/m2
13:55 56.7 °F 53.8 °F 29.2 in SSW 13 mph 29 mph 90% 0 in 30.00 W/m2
14:00 56.7 °F 53.4 °F 29.2 in SSW 16.1 mph 28 mph 89% 0 in 40.00 W/m2
14:05 56.8 °F 53.6 °F 29.2 in SSE 8.1 mph 29 mph 89% 0 in 44.00 W/m2
14:10 57 °F 53.4 °F 29.2 in WSW 8.9 mph 20 mph 88% 0 in 25.00 W/m2
14:15 56.8 °F 53.2 °F 29.2 in SW 21 mph 28 mph 88% 0 in 23.00 W/m2
14:20 57 °F 53.4 °F 29.2 in SSW 8.1 mph 22 mph 88% 0 in 18.00 W/m2
14:25 57 °F 53.4 °F 29.2 in WSW 8.9 mph 20 mph 88% 0 in 28.00 W/m2
14:30 57 °F 53.4 °F 29.2 in SSW 8.9 mph 24 mph 88% 0 in 25.00 W/m2
14:35 57 °F 53.4 °F 29.2 in WSW 17 mph 25 mph 88% 0 in 21.00 W/m2
14:40 57 °F 53.4 °F 29.2 in SSW 14.1 mph 20 mph 88% 0 in 26.00 W/m2
14:45 57.4 °F 53.8 °F 29.2 in SW 19.9 mph 32 mph 88% 0 in 18.00 W/m2
14:50 57.4 °F 53.6 °F 29.2 in WSW 4.9 mph 25 mph 87% 0 in 9.00 W/m2
14:55 57.2 °F 53.6 °F 29.2 in SW 23 mph 34 mph 88% 0 in 12.00 W/m2
15:00 57.2 °F 53.6 °F 29.2 in WSW 16.1 mph 20 mph 88% 0 in 16.00 W/m2
15:05 56.8 °F 53.2 °F 29.2 in SW 14.1 mph 27 mph 88% 0 in 12.00 W/m2
15:10 56.7 °F 53.4 °F 29.2 in SW 15 mph 24 mph 89% 0.01 in 16.00 W/m2
15:15 56.5 °F 53.2 °F 29.2 in SW 10.1 mph 24 mph 89% 0.01 in 11.00 W/m2
15:20 56.1 °F 53.2 °F 29.2 in West 17 mph 24 mph 90% 0.02 in 12.00 W/m2
15:26 55.9 °F 53.4 °F 29.2 in SW 16.1 mph 25 mph 91% 0.02 in 11.00 W/m2
15:30 56.1 °F 53.6 °F 29.2 in WSW 11 mph 31 mph 91% 0.02 in 7.00 W/m2
15:35 56.1 °F 53.6 °F 29.2 in South 6.9 mph 27 mph 91% 0.02 in 9.00 W/m2
15:40 56.1 °F 53.6 °F 29.2 in SW 4 mph 20 mph 91% 0.02 in 5.00 W/m2
15:45 56.1 °F 53.6 °F 29.2 in SW 13 mph 26 mph 91% 0.02 in 0.00 W/m2
15:50 56.1 °F 53.6 °F 29.2 in WSW 16.1 mph 22 mph 91% 0.02 in 5.00 W/m2
15:55 56.5 °F 53.6 °F 29.2 in South 10.1 mph 31 mph 90% 0.02 in 0.00 W/m2
16:00 56.3 °F 53.4 °F 29.2 in South 8.9 mph 22 mph 90% 0.03 in 5.00 W/m2
16:05 56.3 °F 53.4 °F 29.2 in SW 8.1 mph 18 mph 90% 0.03 in 0.00 W/m2
16:10 56.3 °F 53.4 °F 29.2 in SW 8.9 mph 26 mph 90% 0.02 in 0.00 W/m2
16:15 56.5 °F 53.2 °F 29.2 in SSW 6.9 mph 14 mph 89% 0.02 in 0.00 W/m2
16:20 56.5 °F 53.2 °F 29.2 in SSE 8.1 mph 30 mph 89% 0.02 in 0.00 W/m2
16:25 56.1 °F 52.9 °F 29.2 in SW 19 mph 21 mph 89% 0.02 in 0.00 W/m2
16:30 55.9 °F 53.1 °F 29.2 in West 10.1 mph 15 mph 90% 0.02 in 0.00 W/m2
16:35 55.8 °F 53.2 °F 29.2 in SW 8.9 mph 18 mph 91% 0.03 in 0.00 W/m2
16:40 55.8 °F 53.2 °F 29.2 in SW 11 mph 20 mph 91% 0.03 in 0.00 W/m2
16:45 55.6 °F 53.1 °F 29.2 in West 13 mph 24 mph 91% 0.05 in 0.00 W/m2
16:50 55.6 °F 53.2 °F 29.2 in SSW 6 mph 16 mph 92% 0.06 in 0.00 W/m2
16:55 55.6 °F 53.2 °F 29.2 in SW 19 mph 26 mph 92% 0.06 in 0.00 W/m2
17:00 55.4 °F 53.1 °F 29.2 in WSW 13 mph 26 mph 92% 0.06 in 0.00 W/m2
17:06 55.4 °F 53.1 °F 29.2 in SW 10.1 mph 17 mph 92% 0.07 in 0.00 W/m2
17:10 55.4 °F 53.1 °F 29.2 in WSW 17.9 mph 25 mph 92% 0.08 in 0.00 W/m2
17:15 55.2 °F 52.9 °F 29.2 in WSW 8.9 mph 18 mph 92% 0.09 in 0.00 W/m2
17:20 55.2 °F 52.9 °F 29.2 in SSW 21 mph 23 mph 92% 0.09 in 0.00 W/m2
17:25 55.4 °F 53.1 °F 29.2 in SW 15 mph 23 mph 92% 0.09 in 0.00 W/m2
17:30 55.6 °F 53.2 °F 29.2 in WSW 16.1 mph 22 mph 92% 0.09 in 0.00 W/m2
17:35 55.6 °F 53.1 °F 29.2 in SW 10.1 mph 16 mph 91% 0.08 in 0.00 W/m2
17:40 55.6 °F 53.1 °F 29.2 in WSW 13 mph 21 mph 91% 0.07 in 0.00 W/m2
17:45 55.6 °F 53.1 °F 29.2 in SW 10.1 mph 14 mph 91% 0.06 in 0.00 W/m2
17:50 55.2 °F 52.7 °F 29.3 in West 17 mph 23 mph 91% 0.06 in 0.00 W/m2
17:55 55 °F 52.7 °F 29.3 in West 4.9 mph 11 mph 92% 0.11 in 0.00 W/m2
18:00 54.5 °F 52.2 °F 29.3 in West 12.1 mph 14 mph 92% 0.13 in 0.00 W/m2
18:05 54.3 °F 52 °F 29.3 in WSW 14.1 mph 14 mph 92% 0.13 in 0.00 W/m2
18:10 54.5 °F 52.2 °F 29.3 in WSW 13 mph 15 mph 92% 0.13 in 0.00 W/m2
18:15 54.5 °F 52.2 °F 29.3 in West 10.1 mph 10 mph 92% 0.14 in 0.00 W/m2
18:20 54.3 °F 52 °F 29.3 in WSW 8.1 mph 12 mph 92% 0.14 in 0.00 W/m2
18:25 54.1 °F 52.2 °F 29.3 in SW 6.9 mph 15 mph 93% 0.14 in 0.00 W/m2
18:30 54 °F 52 °F 29.3 in SW 14.1 mph 23 mph 93% 0.14 in 0.00 W/m2
18:35 53.8 °F 51.8 °F 29.3 in SW 6 mph 16 mph 93% 0.14 in 0.00 W/m2
18:40 53.6 °F 51.6 °F 29.3 in WSW 16.1 mph 20 mph 93% 0.15 in 0.00 W/m2
18:45 53.4 °F 51.4 °F 29.3 in SSW 13 mph 20 mph 93% 0.16 in 0.00 W/m2
18:50 53.2 °F 51.3 °F 29.3 in WSW 17 mph 18 mph 93% 0.15 in 0.00 W/m2
18:55 53.1 °F 51.1 °F 29.3 in WSW 13 mph 14 mph 93% 0.11 in 0.00 W/m2
19:00 53.1 °F 51.1 °F 29.3 in WSW 8.1 mph 17 mph 93% 0.08 in 0.00 W/m2
19:05 53.1 °F 51.1 °F 29.3 in WSW 8.1 mph 12 mph 93% 0.06 in 0.00 W/m2
19:10 53.1 °F 51.1 °F 29.3 in WSW 2.9 mph 12 mph 93% 0.06 in 0.00 W/m2
19:15 53.1 °F 51.1 °F 29.3 in SW 8.9 mph 13 mph 93% 0.05 in 0.00 W/m2
19:20 53.1 °F 51.1 °F 29.3 in SW 6 mph 11 mph 93% 0.04 in 0.00 W/m2
19:25 53.1 °F 51.1 °F 29.3 in SW 4.9 mph 14 mph 93% 0.05 in 0.00 W/m2
19:31 53.1 °F 50.7 °F 29.3 in WSW 4.9 mph 11 mph 92% 0.05 in 0.00 W/m2
19:35 53.1 °F 50.7 °F 29.3 in SW 8.9 mph 14 mph 92% 0.05 in 0.00 W/m2
19:40 53.1 °F 50.7 °F 29.3 in WSW 4 mph 12 mph 92% 0.05 in 0.00 W/m2
19:45 53.1 °F 50.7 °F 29.3 in SE 4 mph 13 mph 92% 0.04 in 0.00 W/m2
19:50 52.9 °F 50.5 °F 29.3 in South 2.9 mph 13 mph 92% 0.02 in 0.00 W/m2
19:55 53.1 °F 50.7 °F 29.3 in SSW 8.9 mph 13 mph 92% 0.02 in 0.00 W/m2
20:00 53.1 °F 50.7 °F 29.3 in WSW 8.9 mph 9 mph 92% 0.02 in 0.00 W/m2
20:05 53.1 °F 50.7 °F 29.3 in SSW 12.1 mph 12 mph 92% 0.02 in 0.00 W/m2
20:10 53.1 °F 50.7 °F 29.3 in South 4.9 mph 12 mph 92% 0.02 in 0.00 W/m2
20:15 52.9 °F 50.5 °F 29.3 in SW 6.9 mph 7 mph 92% 0.02 in 0.00 W/m2
20:20 52.9 °F 50.5 °F 29.3 in WSW 8.1 mph 11 mph 92% 0.02 in 0.00 W/m2
20:25 52.9 °F 50.5 °F 29.3 in WSW 8.1 mph 15 mph 92% 0.02 in 0.00 W/m2
20:30 52.9 °F 50.4 °F 29.3 in WSW 12.1 mph 14 mph 91% 0.02 in 0.00 W/m2
20:35 52.9 °F 50.5 °F 29.3 in South 4.9 mph 11 mph 92% 0.02 in 0.00 W/m2
20:40 52.9 °F 50.5 °F 29.3 in SSW 6.9 mph 10 mph 92% 0.02 in 0.00 W/m2
20:45 52.9 °F 50.5 °F 29.3 in WSW 10.1 mph 13 mph 92% 0.02 in 0.00 W/m2
20:50 52.7 °F 50.2 °F 29.3 in SW 8.1 mph 12 mph 91% 0.02 in 0.00 W/m2
20:55 52.7 °F 50.2 °F 29.3 in SW 14.1 mph 20 mph 91% 0.02 in 0.00 W/m2
21:00 52.7 °F 50.2 °F 29.3 in SW 4 mph 13 mph 91% 0.03 in 0.00 W/m2
21:05 52.5 °F 50 °F 29.3 in SW 6.9 mph 11 mph 91% 0.03 in 0.00 W/m2
21:10 52.5 °F 50 °F 29.3 in WSW 8.1 mph 17 mph 91% 0.04 in 0.00 W/m2
21:15 52.3 °F 50 °F 29.3 in WSW 6.9 mph 13 mph 92% 0.03 in 0.00 W/m2
21:20 52.3 °F 50 °F 29.3 in SW 4.9 mph 12 mph 92% 0.04 in 0.00 W/m2
21:25 52.3 °F 50 °F 29.3 in West 6.9 mph 7 mph 92% 0.04 in 0.00 W/m2
21:30 51.3 °F 49.1 °F 29.4 in WNW 6.9 mph 8 mph 92% 0.04 in 0.00 W/m2
21:35 50.5 °F 48.4 °F 29.4 in NW 4.9 mph 10 mph 92% 0.07 in 0.00 W/m2
21:40 50.2 °F 48 °F 29.4 in NW 4 mph 10 mph 92% 0.11 in 0.00 W/m2
21:45 49.8 °F 47.8 °F 29.4 in NW 4.9 mph 9 mph 93% 0.12 in 0.00 W/m2
21:50 49.8 °F 47.8 °F 29.4 in NW 4.9 mph 8 mph 93% 0.13 in 0.00 W/m2
21:55 49.6 °F 47.7 °F 29.4 in West 6.9 mph 8 mph 93% 0.13 in 0.00 W/m2
22:00 49.5 °F 47.5 °F 29.4 in WNW 2 mph 7 mph 93% 0.13 in 0.00 W/m2
22:05 49.5 °F 47.8 °F 29.4 in WNW 6.9 mph 8 mph 94% 0.13 in 0.00 W/m2
22:10 49.3 °F 47.7 °F 29.4 in NW 4.9 mph 9 mph 94% 0.13 in 0.00 W/m2
22:15 49.1 °F 47.5 °F 29.4 in West 2.9 mph 8 mph 94% 0.13 in 0.00 W/m2
22:20 48.7 °F 47.1 °F 29.4 in West 2.9 mph 8 mph 94% 0.13 in 0.00 W/m2
22:25 48.6 °F 46.9 °F 29.4 in WNW 2 mph 6 mph 94% 0.14 in 0.00 W/m2
22:30 48.4 °F 46.8 °F 29.4 in WNW 2.9 mph 6 mph 94% 0.14 in 0.00 W/m2
22:35 48 °F 46.4 °F 29.4 in WNW 8.1 mph 10 mph 94% 0.1 in 0.00 W/m2
22:40 48 °F 46.4 °F 29.4 in NW 6.9 mph 8 mph 94% 0.06 in 0.00 W/m2
22:45 47.8 °F 46.2 °F 29.4 in NW 2.9 mph 8 mph 94% 0.06 in 0.00 W/m2
22:50 47.8 °F 46.2 °F 29.4 in WNW 4 mph 8 mph 94% 0.06 in 0.00 W/m2
22:55 47.7 °F 46 °F 29.4 in WNW 4.9 mph 10 mph 94% 0.05 in 0.00 W/m2
23:00 47.7 °F 46.2 °F 29.4 in West 4.9 mph 6 mph 95% 0.06 in 0.00 W/m2
23:05 47.5 °F 46 °F 29.4 in WNW 2 mph 6 mph 95% 0.05 in 0.00 W/m2
23:10 47.5 °F 45.9 °F 29.4 in West 0.9 mph 4 mph 94% 0.05 in 0.00 W/m2
23:15 47.5 °F 45.9 °F 29.4 in NW 2.9 mph 5 mph 94% 0.04 in 0.00 W/m2
23:20 47.5 °F 46 °F 29.4 in WNW 2 mph 5 mph 95% 0.04 in 0.00 W/m2
23:25 47.5 °F 46 °F 29.4 in WNW 2.9 mph 3 mph 95% 0.04 in 0.00 W/m2
23:30 47.5 °F 46 °F 29.4 in West 2 mph 5 mph 95% 0.03 in 0.00 W/m2
23:35 47.5 °F 46 °F 29.4 in WNW 2.9 mph 4 mph 95% 0.03 in 0.00 W/m2
23:40 47.5 °F 46 °F 29.4 in NW 2.9 mph 6 mph 95% 0.04 in 0.00 W/m2
23:45 47.1 °F 45.7 °F 29.4 in NW 6 mph 12 mph 95% 0.03 in 0.00 W/m2
23:50 46.8 °F 45.3 °F 29.4 in NW 4.9 mph 8 mph 95% 0.03 in 0.00 W/m2
23:55 46.4 °F 45 °F 29.4 in WNW 6.9 mph 9 mph 95% 0.04 in 0.00 W/m2